Time;durP1;ratioP1;P1;durP2;ratioP2;P2;SDS_P1;SDS_P2;PMS_P1;PMS_P2;Temp;Humidity;BMP_temperature;BMP_pressure;BME280_temperature;BME280_humidity;BME280_pressure;Samples;Min_cycle;Max_cycle;Signal;HPM_P1;HPM_P2
2023/12/20 00:00:17;;;;;;;4.22;0.68;;;6.80;99.90;;;;;;4943371;28;20054;-75
2023/12/20 00:02:46;;;;;;;4.90;2.30;;;6.80;99.90;;;;;;4960025;28;20039;-75
2023/12/20 00:05:13;;;;;;;2.08;0.93;;;6.70;99.90;;;;;;4942921;28;20406;-75
2023/12/20 00:07:39;;;;;;;2.45;1.08;;;6.70;99.90;;;;;;4976003;28;20074;-75
2023/12/20 00:10:05;;;;;;;1.33;1.23;;;6.70;99.90;;;;;;4975844;28;20078;-75
2023/12/20 00:12:30;;;;;;;3.17;1.45;;;6.60;99.90;;;;;;4943395;28;20417;-75
2023/12/20 00:14:56;;;;;;;16.23;1.58;;;6.60;99.90;;;;;;4960232;28;20610;-75
2023/12/20 00:17:21;;;;;;;4.55;1.85;;;6.60;99.90;;;;;;4961048;28;20042;-75
2023/12/20 00:19:47;;;;;;;3.53;2.20;;;6.60;99.90;;;;;;4944384;28;20510;-75
2023/12/20 00:22:12;;;;;;;8.35;1.67;;;6.50;99.90;;;;;;4960882;28;20248;-75
2023/12/20 00:24:38;;;;;;;5.30;1.63;;;6.60;99.90;;;;;;4960976;28;20046;-75
2023/12/20 00:27:04;;;;;;;3.25;1.95;;;6.50;99.90;;;;;;4975231;28;20402;-75
2023/12/20 00:29:29;;;;;;;5.53;2.08;;;6.60;99.90;;;;;;4974718;28;20090;-75
2023/12/20 00:31:55;;;;;;;11.73;1.88;;;6.60;99.90;;;;;;4960398;28;20129;-75
2023/12/20 00:34:21;;;;;;;4.57;2.00;;;6.60;99.90;;;;;;4944011;28;20049;-75
2023/12/20 00:36:47;;;;;;;5.28;1.45;;;6.60;99.90;;;;;;4961112;28;20651;-75
2023/12/20 00:39:12;;;;;;;2.97;1.60;;;6.60;99.90;;;;;;4959782;28;20394;-75
2023/12/20 00:41:38;;;;;;;4.20;2.58;;;6.60;99.90;;;;;;4959197;28;20058;-75
2023/12/20 00:44:04;;;;;;;1.85;1.45;;;6.70;99.90;;;;;;4943176;28;20058;-75
2023/12/20 00:46:29;;;;;;;3.25;1.60;;;6.70;99.90;;;;;;4958494;28;20043;-75
2023/12/20 00:48:55;;;;;;;8.23;2.70;;;6.70;99.90;;;;;;4976780;28;20086;-75
2023/12/20 00:51:22;;;;;;;4.80;1.90;;;6.70;99.90;;;;;;4940984;28;20173;-75
2023/12/20 00:53:49;;;;;;;4.40;2.42;;;6.70;99.90;;;;;;4957279;28;20124;-75
2023/12/20 00:56:14;;;;;;;10.00;1.77;;;6.70;99.90;;;;;;4939990;28;20047;-75
2023/12/20 00:58:40;;;;;;;9.75;3.42;;;6.70;99.90;;;;;;4946941;28;20054;-75
2023/12/20 01:01:06;;;;;;;3.33;1.77;;;6.70;99.90;;;;;;4963446;28;20046;-75
2023/12/20 01:03:31;;;;;;;4.80;1.80;;;6.70;99.90;;;;;;4947186;28;20050;-75
2023/12/20 01:05:57;;;;;;;9.93;3.20;;;6.70;99.90;;;;;;4946415;28;20074;-75
2023/12/20 01:08:23;;;;;;;5.55;1.35;;;6.70;99.90;;;;;;4947500;28;20221;-75
2023/12/20 01:10:48;;;;;;;3.13;1.20;;;6.70;99.90;;;;;;4963338;28;20035;-74
2023/12/20 01:13:14;;;;;;;4.38;1.92;;;6.70;99.90;;;;;;4963271;28;20046;-74
2023/12/20 01:15:39;;;;;;;5.65;2.33;;;6.80;99.90;;;;;;4961871;28;20506;-75
2023/12/20 01:18:05;;;;;;;2.15;1.10;;;6.80;99.90;;;;;;4963266;28;20053;-75
2023/12/20 01:20:31;;;;;;;4.80;2.03;;;6.80;99.90;;;;;;4964593;28;20035;-75
2023/12/20 01:22:56;;;;;;;5.28;1.10;;;6.80;99.90;;;;;;4963529;28;20086;-75
2023/12/20 01:25:22;;;;;;;3.40;2.10;;;6.80;99.90;;;;;;4964003;28;20490;-75
2023/12/20 01:27:47;;;;;;;4.68;1.75;;;6.90;99.90;;;;;;4946975;28;20401;-75
2023/12/20 01:30:14;;;;;;;9.02;3.15;;;6.90;99.90;;;;;;4945056;28;20122;-75
2023/12/20 01:32:39;;;;;;;7.00;2.35;;;6.90;99.90;;;;;;4978334;28;20345;-75
2023/12/20 01:35:05;;;;;;;7.30;2.80;;;7.00;99.90;;;;;;4963642;28;20153;-75
2023/12/20 01:37:30;;;;;;;10.75;3.08;;;7.00;99.90;;;;;;4962054;28;20043;-75
2023/12/20 01:39:56;;;;;;;8.98;2.45;;;7.00;99.90;;;;;;4963263;28;20042;-75
2023/12/20 01:42:22;;;;;;;5.95;2.35;;;7.00;99.90;;;;;;4946236;28;20445;-75
2023/12/20 01:44:47;;;;;;;7.20;1.98;;;7.00;99.90;;;;;;4977588;28;20046;-74
2023/12/20 01:47:13;;;;;;;5.20;2.30;;;7.00;99.90;;;;;;4963297;28;20117;-75
2023/12/20 01:49:39;;;;;;;5.18;2.63;;;7.10;99.90;;;;;;4963643;28;20050;-75
2023/12/20 01:52:06;;;;;;;7.80;2.60;;;7.00;99.90;;;;;;4978222;28;20256;-75
2023/12/20 01:54:31;;;;;;;6.53;2.50;;;7.00;99.90;;;;;;4963916;28;20049;-75
2023/12/20 01:56:57;;;;;;;10.18;2.60;;;7.10;99.90;;;;;;4962514;28;20043;-75
2023/12/20 01:59:23;;;;;;;8.30;3.22;;;7.00;99.90;;;;;;4962804;28;20465;-75
2023/12/20 02:01:48;;;;;;;6.05;1.95;;;7.10;99.90;;;;;;4945859;28;20049;-75
2023/12/20 02:06:46;;;;;;;4.55;1.30;;;7.10;99.90;;;;;;4960947;28;20050;-74
2023/12/20 02:09:11;;;;;;;6.88;2.15;;;7.10;99.90;;;;;;4969671;28;20050;-74
2023/12/20 02:11:38;;;;;;;7.18;1.73;;;7.10;99.90;;;;;;4974043;28;20053;-75
2023/12/20 02:14:04;;;;;;;7.88;1.75;;;7.10;99.90;;;;;;4979740;28;20081;-75
2023/12/20 02:16:30;;;;;;;6.40;2.15;;;7.10;99.90;;;;;;4974085;28;20097;-75
2023/12/20 02:18:56;;;;;;;8.65;2.63;;;7.10;99.90;;;;;;4983131;28;20062;-75
2023/12/20 02:21:25;;;;;;;2.53;2.00;;;7.10;99.90;;;;;;4982563;28;20511;-75
2023/12/20 02:23:51;;;;;;;4.45;2.63;;;7.20;99.90;;;;;;4982669;28;20045;-75
2023/12/20 02:26:18;;;;;;;9.48;2.90;;;7.10;99.90;;;;;;4983471;28;20046;-75
2023/12/20 02:28:44;;;;;;;9.98;2.80;;;7.10;99.90;;;;;;4981520;28;20629;-75
2023/12/20 02:31:09;;;;;;;6.63;1.90;;;7.10;99.90;;;;;;4980024;28;20042;-74
2023/12/20 02:33:35;;;;;;;6.07;2.13;;;7.10;99.90;;;;;;4982004;28;20050;-74
2023/12/20 02:36:00;;;;;;;12.88;2.78;;;7.10;99.90;;;;;;4964340;28;20046;-75
2023/12/20 02:38:26;;;;;;;9.20;3.45;;;7.10;99.90;;;;;;4982449;28;20050;-75
2023/12/20 02:40:51;;;;;;;5.38;1.92;;;7.10;99.90;;;;;;4981777;28;20485;-75
2023/12/20 02:43:17;;;;;;;8.35;2.05;;;7.10;99.90;;;;;;4982563;28;20444;-75
2023/12/20 02:45:42;;;;;;;4.63;1.55;;;7.10;99.90;;;;;;4981770;28;20050;-75
2023/12/20 02:48:08;;;;;;;7.35;2.95;;;7.10;99.90;;;;;;4980808;28;20530;-75
2023/12/20 02:50:34;;;;;;;3.78;2.58;;;7.10;99.90;;;;;;4982453;28;20678;-74
2023/12/20 02:52:59;;;;;;;4.72;2.67;;;7.10;99.90;;;;;;4982564;28;20126;-74
2023/12/20 02:55:25;;;;;;;5.90;2.67;;;7.10;99.90;;;;;;4982464;28;20201;-75
2023/12/20 02:57:50;;;;;;;4.78;2.90;;;7.10;99.90;;;;;;4980566;28;20093;-75
2023/12/20 03:00:16;;;;;;;4.20;2.00;;;7.10;99.90;;;;;;4980416;28;20061;-74
2023/12/20 03:02:42;;;;;;;7.80;2.45;;;7.10;99.90;;;;;;4964442;28;20038;-75
2023/12/20 03:05:07;;;;;;;11.13;2.70;;;7.00;99.90;;;;;;4943634;28;1065250;-75
2023/12/20 03:07:33;;;;;;;6.53;2.13;;;7.00;99.90;;;;;;4965642;28;20049;-74
2023/12/20 03:09:59;;;;;;;8.05;2.35;;;7.10;99.90;;;;;;4972399;28;20057;-75
2023/12/20 03:12:24;;;;;;;2.97;1.50;;;7.00;99.90;;;;;;4983178;28;20057;-75
2023/12/20 03:14:50;;;;;;;5.05;2.50;;;7.10;99.90;;;;;;4980332;28;20077;-75
2023/12/20 03:17:15;;;;;;;3.72;1.80;;;7.10;99.90;;;;;;4982389;28;20046;-75
2023/12/20 03:19:41;;;;;;;10.00;3.08;;;7.10;99.90;;;;;;4982990;28;20056;-74
2023/12/20 03:22:06;;;;;;;8.35;2.80;;;7.10;99.90;;;;;;4964125;28;20507;-75
2023/12/20 03:24:32;;;;;;;7.18;2.53;;;7.20;99.90;;;;;;4982761;28;20050;-75
2023/12/20 03:26:57;;;;;;;5.82;1.98;;;7.20;99.90;;;;;;4981060;28;20050;-75
2023/12/20 03:29:23;;;;;;;14.27;2.53;;;7.20;99.90;;;;;;4981526;28;20034;-75
2023/12/20 03:31:49;;;;;;;4.25;1.70;;;7.20;99.90;;;;;;4983007;28;20090;-75
2023/12/20 03:34:14;;;;;;;5.88;3.08;;;7.20;99.90;;;;;;4981344;28;20049;-74
2023/12/20 03:36:40;;;;;;;10.27;3.20;;;7.20;99.90;;;;;;4982576;28;20062;-75
2023/12/20 03:39:05;;;;;;;10.88;1.77;;;7.30;99.90;;;;;;4982278;28;20077;-74
2023/12/20 03:41:31;;;;;;;10.63;2.65;;;7.30;99.90;;;;;;4981941;28;20409;-74
2023/12/20 03:43:56;;;;;;;6.85;1.70;;;7.30;99.90;;;;;;4981113;28;20049;-75
2023/12/20 03:46:22;;;;;;;12.13;3.70;;;7.30;99.90;;;;;;4981967;28;20089;-75
2023/12/20 03:48:48;;;;;;;4.38;2.28;;;7.30;99.90;;;;;;4982213;28;20038;-75
2023/12/20 03:51:13;;;;;;;4.18;1.55;;;7.20;99.90;;;;;;4981429;28;20050;-74
2023/12/20 03:53:40;;;;;;;6.28;1.67;;;7.30;99.90;;;;;;4982257;28;20038;-75
2023/12/20 03:56:06;;;;;;;4.57;2.53;;;7.30;99.90;;;;;;4980964;28;20058;-74
2023/12/20 03:58:31;;;;;;;6.22;2.25;;;7.30;99.90;;;;;;4981989;28;20050;-74
2023/12/20 04:00:57;;;;;;;13.35;1.92;;;7.30;99.90;;;;;;4981298;28;20118;-74
2023/12/20 04:03:22;;;;;;;5.20;2.28;;;7.30;99.90;;;;;;4982529;28;20100;-75
2023/12/20 04:05:48;;;;;;;2.72;1.35;;;7.30;99.90;;;;;;4981545;28;20116;-75
2023/12/20 04:08:14;;;;;;;3.20;1.67;;;7.30;99.90;;;;;;4977707;28;20485;-75
2023/12/20 04:10:39;;;;;;;21.50;3.33;;;7.40;99.90;;;;;;4982215;28;20100;-75
2023/12/20 04:13:05;;;;;;;4.53;2.28;;;7.30;99.90;;;;;;4981729;28;20468;-75
2023/12/20 04:15:30;;;;;;;11.40;2.85;;;7.30;99.90;;;;;;4974846;28;20497;-75
2023/12/20 04:17:56;;;;;;;2.83;1.65;;;7.30;99.90;;;;;;4966101;28;20043;-75
2023/12/20 04:20:21;;;;;;;8.38;1.90;;;7.30;99.90;;;;;;4962304;28;20070;-75
2023/12/20 04:22:47;;;;;;;4.82;2.63;;;7.40;99.90;;;;;;4983696;28;20038;-74
2023/12/20 04:25:13;;;;;;;2.40;1.67;;;7.30;99.90;;;;;;4972497;28;20042;-74
2023/12/20 04:27:38;;;;;;;8.52;2.60;;;7.40;99.90;;;;;;4985690;28;20081;-74
2023/12/20 04:30:04;;;;;;;9.60;2.05;;;7.40;99.90;;;;;;4984751;28;20042;-75
2023/12/20 04:32:31;;;;;;;5.75;1.75;;;7.40;99.90;;;;;;4984194;28;20046;-75
2023/12/20 04:34:57;;;;;;;5.93;1.52;;;7.40;99.90;;;;;;4983889;28;20038;-74
2023/12/20 04:37:22;;;;;;;10.23;2.15;;;7.40;99.90;;;;;;4986206;28;20047;-75
2023/12/20 04:39:48;;;;;;;7.20;2.22;;;7.40;99.90;;;;;;4981865;28;20103;-74
2023/12/20 04:42:14;;;;;;;8.27;2.55;;;7.40;99.90;;;;;;4985335;28;20045;-75
2023/12/20 04:44:39;;;;;;;12.00;2.10;;;7.40;99.90;;;;;;4984741;28;20108;-74
2023/12/20 04:47:05;;;;;;;9.48;3.05;;;7.40;99.90;;;;;;4968048;28;20050;-75
2023/12/20 04:49:30;;;;;;;11.25;2.58;;;7.40;99.90;;;;;;4985239;28;20061;-75
2023/12/20 04:51:56;;;;;;;4.80;1.77;;;7.40;99.90;;;;;;4985307;28;20046;-75
2023/12/20 04:54:22;;;;;;;11.13;3.10;;;7.40;99.90;;;;;;4983890;28;20086;-75
2023/12/20 04:56:47;;;;;;;14.13;2.28;;;7.40;99.90;;;;;;4985914;28;20077;-75
2023/12/20 04:59:13;;;;;;;7.22;2.70;;;7.50;99.90;;;;;;4966217;28;20039;-74
2023/12/20 05:01:39;;;;;;;11.02;2.05;;;7.50;99.90;;;;;;4985582;28;20050;-74
2023/12/20 05:04:04;;;;;;;4.95;2.20;;;7.50;99.90;;;;;;4984108;28;20050;-75
2023/12/20 05:06:30;;;;;;;4.78;2.03;;;7.50;99.90;;;;;;4983831;28;20066;-75
2023/12/20 05:08:55;;;;;;;6.88;3.38;;;7.50;99.90;;;;;;4977537;28;20042;-75
2023/12/20 05:11:21;;;;;;;8.27;2.38;;;7.50;99.90;;;;;;4984015;28;20050;-75
2023/12/20 05:13:47;;;;;;;13.30;3.25;;;7.50;99.90;;;;;;4984336;28;20050;-75
2023/12/20 05:16:14;;;;;;;4.50;2.55;;;7.50;99.90;;;;;;4983060;28;20038;-75
2023/12/20 05:18:40;;;;;;;11.18;2.28;;;7.50;99.90;;;;;;4985038;28;20068;-74
2023/12/20 05:21:05;;;;;;;5.65;1.88;;;7.50;99.90;;;;;;4983347;28;20046;-75
2023/12/20 05:23:31;;;;;;;1.98;1.75;;;7.60;99.90;;;;;;4972285;28;20047;-75
2023/12/20 05:25:57;;;;;;;4.07;1.90;;;7.60;99.90;;;;;;4959264;28;20081;-75
2023/12/20 05:28:22;;;;;;;15.98;2.50;;;7.60;99.90;;;;;;4970944;28;20397;-75
2023/12/20 05:30:48;;;;;;;6.10;2.63;;;7.60;99.90;;;;;;4981851;28;20046;-74
2023/12/20 05:33:14;;;;;;;5.10;2.72;;;7.60;99.90;;;;;;4983907;28;20034;-75
2023/12/20 05:35:39;;;;;;;10.02;3.10;;;7.60;99.90;;;;;;4984712;28;20042;-75
2023/12/20 05:38:05;;;;;;;7.28;2.15;;;7.60;99.90;;;;;;4983142;28;20121;-75
2023/12/20 05:40:30;;;;;;;4.78;1.85;;;7.60;99.90;;;;;;4984636;28;20401;-75
2023/12/20 05:42:56;;;;;;;2.90;2.20;;;7.70;99.90;;;;;;4982504;28;20393;-75
2023/12/20 05:45:21;;;;;;;3.25;1.42;;;7.60;99.90;;;;;;4965804;28;20405;-75
2023/12/20 05:47:47;;;;;;;6.38;2.42;;;7.60;99.90;;;;;;4983942;28;20440;-74
2023/12/20 05:50:12;;;;;;;6.63;2.38;;;7.70;99.90;;;;;;4966249;28;20140;-75
2023/12/20 05:52:38;;;;;;;6.50;2.90;;;7.70;99.90;;;;;;4974472;28;20046;-74
2023/12/20 05:55:04;;;;;;;10.63;3.85;;;7.70;99.90;;;;;;4962555;28;20043;-75
2023/12/20 05:57:29;;;;;;;5.57;1.35;;;7.70;99.90;;;;;;4953610;28;20042;-75
2023/12/20 05:59:55;;;;;;;4.32;1.30;;;7.70;99.90;;;;;;4972146;28;20072;-75
2023/12/20 06:02:20;;;;;;;4.00;1.33;;;7.70;99.90;;;;;;4976407;28;20034;-75
2023/12/20 06:04:46;;;;;;;10.68;2.85;;;7.70;99.90;;;;;;4984109;28;20062;-75
2023/12/20 06:07:12;;;;;;;8.30;3.35;;;7.70;99.90;;;;;;4984435;28;20038;-75
2023/12/20 06:09:37;;;;;;;6.13;2.25;;;7.70;99.90;;;;;;4968698;28;20054;-75
2023/12/20 06:12:03;;;;;;;9.00;3.58;;;7.70;99.90;;;;;;4981900;28;20050;-75
2023/12/20 06:14:30;;;;;;;3.58;1.92;;;7.70;99.90;;;;;;4983371;28;20071;-75
2023/12/20 06:16:56;;;;;;;4.82;2.22;;;7.70;99.90;;;;;;4965432;28;20054;-75
2023/12/20 06:19:22;;;;;;;6.30;2.88;;;7.80;99.90;;;;;;4983963;28;20422;-75
2023/12/20 06:21:47;;;;;;;6.22;1.55;;;7.80;99.90;;;;;;4983037;28;20413;-75
2023/12/20 06:24:13;;;;;;;3.05;1.15;;;7.80;99.90;;;;;;4967988;28;20118;-75
2023/12/20 06:26:39;;;;;;;15.57;3.28;;;7.80;99.90;;;;;;4962028;28;20046;-75
2023/12/20 06:29:04;;;;;;;16.38;1.83;;;7.80;99.90;;;;;;4958916;28;20043;-75
2023/12/20 06:31:30;;;;;;;2.78;2.05;;;7.80;99.90;;;;;;4969870;28;20077;-78
2023/12/20 06:33:57;;;;;;;8.77;3.13;;;7.80;99.90;;;;;;4981647;28;20046;-75
2023/12/20 06:36:26;;;;;;;6.30;3.33;;;7.80;99.90;;;;;;4978820;28;20576;-75
2023/12/20 06:38:52;;;;;;;7.43;2.38;;;7.80;99.90;;;;;;4967540;28;20046;-76
2023/12/20 06:41:18;;;;;;;4.28;1.73;;;7.80;99.90;;;;;;4982597;28;20034;-76
2023/12/20 06:43:44;;;;;;;9.48;2.88;;;7.80;99.90;;;;;;4958705;28;20422;-74
2023/12/20 06:46:10;;;;;;;3.70;1.60;;;7.80;99.90;;;;;;4976008;28;20046;-75
2023/12/20 06:48:36;;;;;;;5.00;2.35;;;7.80;99.90;;;;;;4964061;28;20038;-79
2023/12/20 06:51:02;;;;;;;7.65;2.03;;;7.80;99.90;;;;;;4960627;28;20401;-75
2023/12/20 06:53:27;;;;;;;7.20;2.63;;;7.80;99.90;;;;;;4967094;28;20042;-75
2023/12/20 06:55:53;;;;;;;6.00;2.10;;;7.80;99.90;;;;;;4948789;28;20141;-75
2023/12/20 06:58:19;;;;;;;6.68;1.95;;;7.80;99.90;;;;;;4962072;28;20513;-76
2023/12/20 07:00:44;;;;;;;7.78;1.98;;;7.80;99.90;;;;;;4975427;28;20093;-75
2023/12/20 07:03:10;;;;;;;3.08;2.45;;;7.80;99.90;;;;;;4968639;28;20082;-75
2023/12/20 07:05:36;;;;;;;9.23;2.45;;;7.80;99.90;;;;;;4961393;28;20054;-75
2023/12/20 07:08:01;;;;;;;10.02;2.97;;;7.80;99.90;;;;;;4960782;28;20058;-75
2023/12/20 07:10:27;;;;;;;5.78;2.20;;;7.80;99.90;;;;;;4965553;28;20121;-76
2023/12/20 07:12:54;;;;;;;13.40;2.28;;;7.70;99.90;;;;;;4962482;28;20047;-76
2023/12/20 07:15:21;;;;;;;10.10;2.72;;;7.70;99.90;;;;;;4965355;28;20059;-77
2023/12/20 07:17:46;;;;;;;8.30;2.15;;;7.70;99.90;;;;;;4962691;28;20070;-75
2023/12/20 07:20:12;;;;;;;6.18;2.50;;;7.70;99.90;;;;;;4961062;28;20078;-75
2023/12/20 07:22:38;;;;;;;5.53;2.95;;;7.70;99.90;;;;;;4962735;28;20035;-74
2023/12/20 07:25:04;;;;;;;20.05;2.40;;;7.60;99.90;;;;;;4960682;28;20111;-74
2023/12/20 07:27:30;;;;;;;3.10;2.03;;;7.70;99.90;;;;;;4961108;28;20045;-74
2023/12/20 07:29:56;;;;;;;7.95;1.50;;;7.70;99.90;;;;;;4963064;28;20042;-75
2023/12/20 07:32:21;;;;;;;4.43;2.65;;;7.70;99.90;;;;;;4966970;28;20093;-75
2023/12/20 07:34:47;;;;;;;5.85;2.30;;;7.70;99.90;;;;;;4975624;28;20125;-74
2023/12/20 07:37:13;;;;;;;2.53;1.55;;;7.70;99.90;;;;;;4980783;28;20050;-74
2023/12/20 07:39:42;;;;;;;6.43;3.20;;;7.80;99.90;;;;;;4982683;28;20038;-75
2023/12/20 07:42:08;;;;;;;9.63;3.10;;;7.80;99.90;;;;;;4977086;28;20049;-74
2023/12/20 07:44:35;;;;;;;10.43;1.88;;;7.80;99.90;;;;;;4974672;28;20046;-75
2023/12/20 07:47:01;;;;;;;8.95;2.83;;;7.80;99.90;;;;;;4980800;28;20069;-75
2023/12/20 07:49:27;;;;;;;7.15;2.08;;;7.80;99.90;;;;;;4966516;28;20050;-75
2023/12/20 07:51:52;;;;;;;20.10;2.83;;;7.80;99.90;;;;;;4982439;28;20038;-75
2023/12/20 07:54:18;;;;;;;7.38;1.75;;;7.80;99.90;;;;;;4981605;28;20050;-75
2023/12/20 07:56:43;;;;;;;5.15;1.77;;;7.80;99.90;;;;;;4982229;28;20142;-75
2023/12/20 07:59:09;;;;;;;3.58;1.00;;;7.80;99.90;;;;;;4970570;28;20465;-75
2023/12/20 08:01:35;;;;;;;3.13;0.57;;;7.60;99.90;;;;;;4969201;28;20061;-74
2023/12/20 08:04:00;;;;;;;0.57;0.50;;;7.50;99.90;;;;;;4970259;28;20042;-74
2023/12/20 08:06:26;;;;;;;10.07;2.70;;;7.40;99.90;;;;;;4981859;28;20527;-74
2023/12/20 08:08:51;;;;;;;2.38;1.88;;;7.40;99.90;;;;;;4971145;28;20089;-75
2023/12/20 08:11:17;;;;;;;4.00;1.65;;;7.30;99.90;;;;;;4974498;28;20046;-74
2023/12/20 08:13:43;;;;;;;3.92;1.20;;;7.40;99.90;;;;;;4979713;28;20047;-75
2023/12/20 08:16:09;;;;;;;4.80;2.40;;;7.40;99.90;;;;;;4980536;28;20097;-75
2023/12/20 08:18:34;;;;;;;5.38;2.28;;;7.40;99.90;;;;;;4977298;28;20130;-74
2023/12/20 08:21:01;;;;;;;15.60;2.35;;;7.40;99.90;;;;;;4973924;28;20058;-74
2023/12/20 08:23:26;;;;;;;5.93;2.45;;;7.50;99.90;;;;;;4976736;28;20070;-75
2023/12/20 08:25:52;;;;;;;9.75;3.28;;;7.50;99.90;;;;;;4978523;28;20527;-75
2023/12/20 08:28:18;;;;;;;6.53;2.17;;;7.50;99.90;;;;;;4943397;28;20081;-75
2023/12/20 08:30:43;;;;;;;4.70;2.47;;;7.60;99.90;;;;;;4958440;28;20039;-75
2023/12/20 08:33:12;;;;;;;15.43;2.25;;;7.60;99.90;;;;;;4941146;28;20387;-74
2023/12/20 08:35:41;;;;;;;4.97;2.22;;;7.70;99.90;;;;;;4959220;28;20057;-75
2023/12/20 08:38:06;;;;;;;12.38;2.83;;;7.70;99.90;;;;;;4959656;28;20096;-75
2023/12/20 08:40:32;;;;;;;23.13;2.30;;;7.70;99.90;;;;;;4962283;28;20050;-75
2023/12/20 08:42:58;;;;;;;9.55;1.90;;;7.80;99.90;;;;;;4964860;28;20097;-75
2023/12/20 08:45:24;;;;;;;6.68;1.65;;;7.80;99.90;;;;;;4961339;28;20038;-75
2023/12/20 08:47:50;;;;;;;5.68;2.95;;;7.80;99.90;;;;;;4943751;28;20074;-75
2023/12/20 08:50:15;;;;;;;6.00;2.08;;;7.80;99.90;;;;;;4944554;28;20133;-74
2023/12/20 08:52:42;;;;;;;3.58;1.92;;;7.80;99.90;;;;;;4959816;28;20138;-75
2023/12/20 08:55:08;;;;;;;5.47;2.17;;;7.90;99.90;;;;;;4958192;28;20054;-74
2023/12/20 08:57:33;;;;;;;2.65;1.00;;;7.90;99.90;;;;;;4959909;28;20134;-75
2023/12/20 08:59:59;;;;;;;4.00;1.58;;;7.90;99.90;;;;;;4958776;28;20117;-75
2023/12/20 09:02:25;;;;;;;2.80;0.73;;;7.60;99.90;;;;;;4950127;28;20042;-74
2023/12/20 09:04:50;;;;;;;0.60;0.45;;;7.50;99.90;;;;;;4959194;28;20490;-75
2023/12/20 09:07:23;;;;;;;1.13;0.63;;;7.40;99.90;;;;;;4960364;28;20113;-74
2023/12/20 09:09:48;;;;;;;1.15;0.90;;;7.30;99.90;;;;;;4961917;28;20138;-74
2023/12/20 09:12:14;;;;;;;1.83;1.02;;;7.20;99.90;;;;;;4946549;28;20145;-74
2023/12/20 09:14:40;;;;;;;0.88;0.88;;;7.10;99.90;;;;;;4962248;28;20058;-74
2023/12/20 09:17:08;;;;;;;1.05;1.00;;;7.10;99.90;;;;;;4947181;28;20047;-74
2023/12/20 09:19:34;;;;;;;2.03;1.08;;;7.00;99.90;;;;;;4946133;28;20141;-74
2023/12/20 09:21:59;;;;;;;3.08;1.55;;;7.00;99.90;;;;;;4962048;28;20039;-75
2023/12/20 09:24:25;;;;;;;3.00;0.80;;;6.90;99.90;;;;;;4963251;28;20047;-74
2023/12/20 09:26:50;;;;;;;2.63;0.70;;;6.90;99.90;;;;;;4946682;28;20046;-75
2023/12/20 09:29:17;;;;;;;4.07;0.50;;;6.80;99.90;;;;;;4962132;28;20396;-74
2023/12/20 09:31:43;;;;;;;3.97;1.85;;;6.80;99.90;;;;;;4944811;28;20133;-74
2023/12/20 09:34:09;;;;;;;6.05;1.77;;;6.80;99.90;;;;;;4962196;28;20039;-75
2023/12/20 09:36:36;;;;;;;2.47;1.75;;;6.80;99.90;;;;;;4962819;28;20109;-74
2023/12/20 09:39:02;;;;;;;2.20;0.52;;;6.80;99.90;;;;;;4978701;28;20100;-75
2023/12/20 09:41:31;;;;;;;1.35;1.15;;;6.80;99.90;;;;;;4978043;28;21089;-75
2023/12/20 09:44:01;;;;;;;5.07;0.93;;;6.80;99.90;;;;;;4962073;28;20054;-75
2023/12/20 09:46:32;;;;;;;3.00;0.60;;;6.80;99.90;;;;;;4962381;28;20138;-74
2023/12/20 09:48:59;;;;;;;1.67;0.75;;;6.80;99.90;;;;;;4961803;28;20046;-77
2023/12/20 09:51:27;;;;;;;7.32;0.93;;;6.80;99.90;;;;;;4946788;28;20054;-77
2023/12/20 09:53:55;;;;;;;5.65;1.70;;;6.80;99.90;;;;;;4960328;28;20042;-75
2023/12/20 09:56:21;;;;;;;4.35;1.00;;;6.80;99.90;;;;;;4960788;28;20519;-76
2023/12/20 09:58:47;;;;;;;2.13;0.82;;;6.80;99.90;;;;;;4945272;28;20047;-75
2023/12/20 10:01:14;;;;;;;4.43;1.83;;;6.80;99.90;;;;;;4959606;28;20578;-75
2023/12/20 10:03:41;;;;;;;3.45;1.23;;;6.80;99.90;;;;;;4962744;28;20064;-75
2023/12/20 10:06:07;;;;;;;5.65;1.48;;;6.80;99.90;;;;;;4961488;28;20059;-75
2023/12/20 10:08:32;;;;;;;2.53;0.80;;;6.80;99.90;;;;;;4962297;28;20391;-75
2023/12/20 10:11:02;;;;;;;3.13;1.17;;;6.80;99.90;;;;;;4960927;28;20090;-75
2023/12/20 10:13:28;;;;;;;1.58;0.65;;;6.90;99.90;;;;;;4959726;28;20335;-75
2023/12/20 10:15:55;;;;;;;2.40;1.38;;;7.00;99.90;;;;;;4961629;28;20544;-75
2023/12/20 10:18:21;;;;;;;1.77;0.52;;;7.00;99.90;;;;;;4962099;28;20047;-75
2023/12/20 10:20:47;;;;;;;2.15;1.05;;;7.00;99.90;;;;;;4961136;28;20460;-75
2023/12/20 10:23:14;;;;;;;4.38;1.50;;;7.10;99.90;;;;;;4943853;28;20049;-75
2023/12/20 10:25:41;;;;;;;1.08;0.73;;;7.10;99.90;;;;;;4961316;28;20047;-75
2023/12/20 10:28:22;;;;;;;3.97;1.20;;;7.10;99.90;;;;;;4961602;28;20053;-75
2023/12/20 10:30:48;;;;;;;5.63;1.00;;;7.10;99.90;;;;;;4961281;28;20050;-75
2023/12/20 10:33:13;;;;;;;1.48;0.70;;;7.10;99.90;;;;;;4970681;28;20048;-75
2023/12/20 10:35:40;;;;;;;3.42;1.15;;;7.20;99.90;;;;;;4980999;28;20042;-75
2023/12/20 10:38:06;;;;;;;1.00;0.77;;;7.20;99.90;;;;;;4980739;28;20130;-75
2023/12/20 10:40:38;;;;;;;2.17;1.15;;;7.20;99.90;;;;;;4964130;28;20122;-75
2023/12/20 10:43:04;;;;;;;7.03;1.63;;;7.20;99.90;;;;;;4960704;28;20490;-75
2023/12/20 10:45:31;;;;;;;3.75;1.88;;;7.30;99.90;;;;;;4955935;28;20539;-75
2023/12/20 10:47:59;;;;;;;1.17;0.82;;;7.30;99.90;;;;;;4980328;28;20062;-75
2023/12/20 10:50:26;;;;;;;2.10;0.65;;;7.30;99.90;;;;;;4952447;28;20050;-75
2023/12/20 10:52:55;;;;;;;8.00;1.05;;;7.30;99.90;;;;;;4961324;28;20042;-76
2023/12/20 10:55:22;;;;;;;3.92;1.73;;;7.40;99.90;;;;;;4958126;28;20050;-75
2023/12/20 10:57:51;;;;;;;2.10;1.95;;;7.40;99.90;;;;;;4961135;28;20053;-76
2023/12/20 11:00:18;;;;;;;0.77;0.77;;;7.40;99.90;;;;;;4966693;28;20078;-75
2023/12/20 11:02:44;;;;;;;2.88;0.93;;;7.40;99.90;;;;;;4968376;28;20082;-76
2023/12/20 11:05:29;;;;;;;3.33;1.38;;;7.40;99.90;;;;;;4962692;28;20058;-75
2023/12/20 11:08:06;;;;;;;1.85;0.82;;;7.50;99.90;;;;;;4962235;28;20493;-76
2023/12/20 11:10:50;;;;;;;4.15;1.02;;;7.50;99.90;;;;;;4961326;28;20359;-76
2023/12/20 11:13:37;;;;;;;1.80;0.80;;;7.50;99.90;;;;;;4959452;28;20431;-78
2023/12/20 11:16:03;;;;;;;1.95;0.93;;;7.50;99.90;;;;;;4961484;28;20047;-75
2023/12/20 11:18:33;;;;;;;9.30;2.03;;;7.50;99.90;;;;;;4965513;28;20042;-76
2023/12/20 11:21:04;;;;;;;2.13;0.55;;;7.60;99.90;;;;;;4952953;28;20042;-76
2023/12/20 11:23:34;;;;;;;5.13;1.55;;;7.60;99.90;;;;;;4967090;28;20105;-77
2023/12/20 11:25:59;;;;;;;6.05;1.08;;;7.60;99.90;;;;;;4974259;28;20330;-78
2023/12/20 11:28:26;;;;;;;6.13;1.35;;;7.60;99.90;;;;;;4957498;28;20042;-77
2023/12/20 11:30:54;;;;;;;3.05;1.27;;;7.70;99.90;;;;;;4980827;28;20053;-77
2023/12/20 11:33:24;;;;;;;3.38;1.38;;;7.70;99.90;;;;;;4977180;28;20034;-78
2023/12/20 11:35:50;;;;;;;3.40;1.50;;;7.70;99.90;;;;;;4972057;28;20108;-77
2023/12/20 11:38:15;;;;;;;1.92;1.13;;;7.70;99.90;;;;;;4964735;28;20043;-77
2023/12/20 11:40:43;;;;;;;4.25;1.58;;;7.70;99.90;;;;;;4959612;28;20065;-77
2023/12/20 11:43:09;;;;;;;2.33;0.90;;;7.70;99.90;;;;;;4967863;28;20051;-77
2023/12/20 11:45:34;;;;;;;2.05;1.85;;;7.70;99.90;;;;;;4972072;28;20046;-77
2023/12/20 11:48:02;;;;;;;6.88;2.63;;;7.70;99.90;;;;;;4961758;28;20061;-77
2023/12/20 11:50:29;;;;;;;2.30;1.60;;;7.80;99.90;;;;;;4944937;28;20126;-77
2023/12/20 11:52:55;;;;;;;2.25;1.10;;;7.80;99.90;;;;;;4972355;28;20132;-77
2023/12/20 11:55:22;;;;;;;0.90;0.80;;;7.80;99.90;;;;;;4965801;28;20511;-77
2023/12/20 11:57:47;;;;;;;3.63;1.38;;;7.80;99.90;;;;;;4962896;28;20557;-77
2023/12/20 12:00:14;;;;;;;5.75;2.53;;;7.80;99.90;;;;;;4961102;28;20445;-76
2023/12/20 12:02:40;;;;;;;5.80;1.80;;;7.80;99.90;;;;;;4968014;28;20130;-79
2023/12/20 12:05:06;;;;;;;3.17;1.75;;;7.80;99.90;;;;;;4963080;28;20074;-78
2023/12/20 12:07:32;;;;;;;3.08;0.90;;;7.70;99.90;;;;;;4959526;28;21083;-78
2023/12/20 12:09:58;;;;;;;5.25;2.15;;;7.70;99.90;;;;;;4957375;28;20042;-76
2023/12/20 12:12:25;;;;;;;5.40;1.58;;;7.80;99.90;;;;;;4960646;28;20386;-77
2023/12/20 12:14:51;;;;;;;2.83;1.27;;;7.70;99.90;;;;;;4958561;28;20061;-77
2023/12/20 12:17:16;;;;;;;6.93;1.75;;;7.70;99.90;;;;;;4960781;28;20042;-78
2023/12/20 12:19:43;;;;;;;2.00;1.20;;;7.70;99.90;;;;;;4960790;28;20130;-77
2023/12/20 12:22:13;;;;;;;4.60;1.42;;;7.70;99.90;;;;;;4943819;28;20042;-76
2023/12/20 12:24:49;;;;;;;1.95;0.45;;;7.70;99.90;;;;;;4948945;28;20294;-73
2023/12/20 12:27:15;;;;;;;2.55;1.45;;;7.70;99.90;;;;;;4950497;28;20042;-78
2023/12/20 12:29:59;;;;;;;1.00;0.88;;;7.60;99.90;;;;;;4957228;28;20356;-75
2023/12/20 12:32:25;;;;;;;4.55;1.40;;;7.60;99.90;;;;;;4956518;28;20251;-76
2023/12/20 12:34:51;;;;;;;1.98;0.77;;;7.50;99.90;;;;;;4957818;28;20062;-75
2023/12/20 12:37:16;;;;;;;2.63;1.05;;;7.50;99.90;;;;;;4951816;28;20078;-73
2023/12/20 12:39:42;;;;;;;0.68;0.38;;;7.50;99.90;;;;;;4957887;28;20035;-72
2023/12/20 12:42:08;;;;;;;0.60;0.35;;;7.40;99.90;;;;;;4957664;28;20058;-72
2023/12/20 12:44:33;;;;;;;1.45;0.38;;;7.40;99.90;;;;;;4960632;28;20043;-72
2023/12/20 12:46:59;;;;;;;0.75;0.38;;;7.30;99.90;;;;;;4962358;28;20047;-73
2023/12/20 12:49:24;;;;;;;1.48;1.15;;;7.30;99.90;;;;;;4947367;28;20039;-72
2023/12/20 12:51:51;;;;;;;1.83;1.02;;;7.30;99.90;;;;;;4962891;28;20125;-73